Time;durP1;ratioP1;P1;durP2;ratioP2;P2;SDS_P1;SDS_P2;PMS_P1;PMS_P2;Temp;Humidity;BMP_temperature;BMP_pressure;BME280_temperature;BME280_humidity;BME280_pressure;Samples;Min_cycle;Max_cycle;Signal;HPM_P1;HPM_P2
2021/10/16 00:00:08;;;;;;;6.28;1.75;;;7.60;99.90;;;;;;5070899;28;20481;-64
2021/10/16 00:02:33;;;;;;;5.22;1.88;;;7.60;99.90;;;;;;5068040;28;20059;-64
2021/10/16 00:04:59;;;;;;;7.38;2.05;;;7.50;99.90;;;;;;5068309;28;20041;-64
2021/10/16 00:07:24;;;;;;;4.63;1.90;;;7.50;99.90;;;;;;5069810;28;20032;-64
2021/10/16 00:09:50;;;;;;;6.13;1.85;;;7.50;99.90;;;;;;5070858;28;20125;-64
2021/10/16 00:12:16;;;;;;;8.25;2.00;;;7.40;99.90;;;;;;5071048;28;20068;-64
2021/10/16 00:14:41;;;;;;;5.93;1.92;;;7.40;99.90;;;;;;5069082;28;20033;-64
2021/10/16 00:17:07;;;;;;;7.72;2.00;;;7.30;99.90;;;;;;5071237;28;20592;-64
2021/10/16 00:19:33;;;;;;;6.82;2.67;;;7.30;99.90;;;;;;5062597;28;20083;-64
2021/10/16 00:21:58;;;;;;;6.68;2.20;;;7.20;99.90;;;;;;5068692;28;20036;-64
2021/10/16 00:24:24;;;;;;;4.35;1.95;;;7.10;99.90;;;;;;5068595;28;20389;-64
2021/10/16 00:26:49;;;;;;;6.68;1.85;;;7.10;99.90;;;;;;5068113;28;20433;-64
2021/10/16 00:29:15;;;;;;;6.35;1.75;;;7.00;99.90;;;;;;5068959;28;20540;-64
2021/10/16 00:31:40;;;;;;;8.00;2.50;;;7.00;99.90;;;;;;5057685;28;20390;-64
2021/10/16 00:34:06;;;;;;;6.00;2.17;;;6.90;99.90;;;;;;5074690;28;20466;-64
2021/10/16 00:36:31;;;;;;;8.85;2.10;;;6.80;99.90;;;;;;5072603;28;20048;-64
2021/10/16 00:38:57;;;;;;;7.30;2.10;;;6.80;99.90;;;;;;5066247;28;20551;-64
2021/10/16 00:41:22;;;;;;;6.80;2.10;;;6.80;99.90;;;;;;5056006;28;20040;-64
2021/10/16 00:44:08;;;;;;;5.78;1.77;;;6.70;99.90;;;;;;5071711;28;20032;-64
2021/10/16 00:46:33;;;;;;;6.13;2.03;;;6.60;99.90;;;;;;5073504;28;20047;-64
2021/10/16 00:49:00;;;;;;;7.90;2.30;;;6.50;99.90;;;;;;5069742;28;20048;-64
2021/10/16 00:51:26;;;;;;;6.32;2.17;;;6.50;99.90;;;;;;5070496;28;20078;-64
2021/10/16 00:53:51;;;;;;;5.82;2.35;;;6.50;99.90;;;;;;5073171;28;20040;-64
2021/10/16 00:56:17;;;;;;;5.10;1.98;;;6.40;99.90;;;;;;5072477;28;20049;-64
2021/10/16 00:58:42;;;;;;;5.30;1.90;;;6.40;99.90;;;;;;5069774;28;20068;-64
2021/10/16 01:01:08;;;;;;;6.07;2.17;;;6.30;99.90;;;;;;5073499;28;20098;-64
2021/10/16 01:03:33;;;;;;;5.35;1.98;;;6.30;99.90;;;;;;5073280;28;20436;-64
2021/10/16 01:05:59;;;;;;;4.00;1.85;;;6.30;99.90;;;;;;5073453;28;20120;-64
2021/10/16 01:08:25;;;;;;;4.00;1.63;;;6.30;99.90;;;;;;5071761;28;20040;-64
2021/10/16 01:10:50;;;;;;;2.45;1.27;;;6.20;99.90;;;;;;5072385;28;20143;-64
2021/10/16 01:13:16;;;;;;;4.13;1.50;;;6.20;99.90;;;;;;5071062;28;20040;-64
2021/10/16 01:15:43;;;;;;;2.83;1.30;;;6.20;99.90;;;;;;5073167;28;20079;-64
2021/10/16 01:18:09;;;;;;;4.93;1.45;;;6.10;99.90;;;;;;5069646;28;20049;-64
2021/10/16 01:20:44;;;;;;;6.00;1.55;;;6.10;99.90;;;;;;5071584;28;20079;-64
2021/10/16 01:23:10;;;;;;;3.08;1.40;;;6.10;99.90;;;;;;5071216;28;20080;-64
2021/10/16 01:25:37;;;;;;;4.13;1.38;;;6.00;99.90;;;;;;5071078;28;20040;-64
2021/10/16 01:28:03;;;;;;;3.60;1.60;;;6.00;99.90;;;;;;5069671;28;20040;-64
2021/10/16 01:30:29;;;;;;;4.03;1.70;;;6.00;99.90;;;;;;5071320;28;20485;-64
2021/10/16 01:32:55;;;;;;;3.38;1.60;;;6.00;99.90;;;;;;5069115;28;20041;-64
2021/10/16 01:35:20;;;;;;;6.10;1.80;;;5.90;99.90;;;;;;5070892;28;20605;-64
2021/10/16 01:37:49;;;;;;;6.43;1.80;;;5.90;99.90;;;;;;5072876;28;20421;-64
2021/10/16 01:40:15;;;;;;;5.25;1.90;;;5.90;99.90;;;;;;5071277;28;20059;-64
2021/10/16 01:42:42;;;;;;;5.45;1.80;;;5.90;99.90;;;;;;5071377;28;20029;-64
2021/10/16 01:45:13;;;;;;;5.47;2.13;;;5.90;99.90;;;;;;5071881;28;20401;-64
2021/10/16 01:47:52;;;;;;;5.55;1.90;;;5.80;99.90;;;;;;5071498;28;20029;-64
2021/10/16 01:50:19;;;;;;;5.45;2.03;;;5.90;99.90;;;;;;5070468;28;20032;-64
2021/10/16 01:52:45;;;;;;;4.82;2.20;;;5.90;99.90;;;;;;5069605;28;20656;-64
2021/10/16 01:55:10;;;;;;;5.95;2.38;;;5.90;99.90;;;;;;5072623;28;20041;-64
2021/10/16 01:57:36;;;;;;;6.22;2.47;;;5.90;99.90;;;;;;5071216;28;20029;-64
2021/10/16 02:00:05;;;;;;;4.95;2.30;;;6.00;99.90;;;;;;5069165;28;20046;-64
2021/10/16 02:02:31;;;;;;;7.38;2.50;;;6.00;99.90;;;;;;5071450;28;20465;-64
2021/10/16 02:04:57;;;;;;;4.35;2.38;;;6.00;99.90;;;;;;5071830;28;20047;-64
2021/10/16 02:07:22;;;;;;;6.40;2.58;;;6.10;99.90;;;;;;5072270;28;20867;-64
2021/10/16 02:09:48;;;;;;;7.07;2.50;;;6.10;99.90;;;;;;5070877;28;20032;-64
2021/10/16 02:12:13;;;;;;;5.22;2.05;;;6.20;99.90;;;;;;5070967;28;20139;-64
2021/10/16 02:14:39;;;;;;;7.07;2.45;;;6.20;99.90;;;;;;5071437;28;20131;-64
2021/10/16 02:17:04;;;;;;;8.77;2.38;;;6.20;99.90;;;;;;5069587;28;20075;-64
2021/10/16 02:19:30;;;;;;;5.68;2.50;;;6.30;99.90;;;;;;5058000;28;20127;-64
2021/10/16 02:21:55;;;;;;;6.53;2.08;;;6.40;99.90;;;;;;5066997;28;20045;-64
2021/10/16 02:24:21;;;;;;;6.13;2.42;;;6.40;99.90;;;;;;5072089;28;20047;-64
2021/10/16 02:26:46;;;;;;;8.05;2.60;;;6.50;99.90;;;;;;5070356;28;20112;-64
2021/10/16 02:29:12;;;;;;;6.38;2.47;;;6.50;99.90;;;;;;5069665;28;20041;-64
2021/10/16 02:31:37;;;;;;;5.25;2.53;;;6.60;99.90;;;;;;5071244;28;20037;-64
2021/10/16 02:34:03;;;;;;;4.85;2.00;;;6.60;99.90;;;;;;5063844;28;20485;-64
2021/10/16 02:36:29;;;;;;;7.05;2.38;;;6.70;99.90;;;;;;5065802;28;20048;-64
2021/10/16 02:38:54;;;;;;;5.55;2.10;;;6.70;99.90;;;;;;5070944;28;20048;-64
2021/10/16 02:41:20;;;;;;;6.72;2.45;;;6.70;99.90;;;;;;5071001;28;20036;-64
2021/10/16 02:43:45;;;;;;;6.57;2.50;;;6.80;99.90;;;;;;5070219;28;20036;-64
2021/10/16 02:46:12;;;;;;;4.10;2.30;;;6.80;99.90;;;;;;5072009;28;20040;-64
2021/10/16 02:48:37;;;;;;;6.80;2.13;;;6.80;99.90;;;;;;5071127;28;20047;-64
2021/10/16 02:51:03;;;;;;;7.22;2.17;;;6.90;99.90;;;;;;5066687;28;20097;-64
2021/10/16 02:53:28;;;;;;;7.82;2.85;;;6.90;99.90;;;;;;5069698;28;20100;-64
2021/10/16 02:55:54;;;;;;;5.65;2.53;;;6.90;99.90;;;;;;5071407;28;20071;-64
2021/10/16 02:58:20;;;;;;;5.32;2.47;;;7.00;99.90;;;;;;5067692;28;20052;-64
2021/10/16 03:00:45;;;;;;;6.47;2.70;;;7.00;99.90;;;;;;5070805;28;20048;-64
2021/10/16 03:03:11;;;;;;;4.45;2.20;;;7.00;99.90;;;;;;5071069;28;20413;-64
2021/10/16 03:05:36;;;;;;;5.68;2.38;;;7.00;99.90;;;;;;5070022;28;20076;-64
2021/10/16 03:08:02;;;;;;;10.68;2.80;;;7.10;99.90;;;;;;5068015;28;20032;-64
2021/10/16 03:10:27;;;;;;;6.40;2.72;;;7.10;99.90;;;;;;5069572;28;20047;-64
2021/10/16 03:12:53;;;;;;;7.22;2.67;;;7.10;99.90;;;;;;5070771;28;20048;-64
2021/10/16 03:15:18;;;;;;;5.97;2.50;;;7.20;99.90;;;;;;5070461;28;20035;-64
2021/10/16 03:17:44;;;;;;;7.75;2.67;;;7.20;99.90;;;;;;5070934;28;20066;-64
2021/10/16 03:20:10;;;;;;;7.25;3.42;;;7.20;99.90;;;;;;5070822;28;20072;-64
2021/10/16 03:22:35;;;;;;;5.75;2.60;;;7.20;99.90;;;;;;5069247;28;20116;-64
2021/10/16 03:25:01;;;;;;;6.88;2.85;;;7.20;99.90;;;;;;5068617;28;20099;-64
2021/10/16 03:27:27;;;;;;;5.95;2.55;;;7.20;99.90;;;;;;5059830;28;20032;-64
2021/10/16 03:29:52;;;;;;;7.22;2.92;;;7.20;99.90;;;;;;5069919;28;20551;-64
2021/10/16 03:32:18;;;;;;;6.53;2.55;;;7.30;99.90;;;;;;5071233;28;20036;-64
2021/10/16 03:34:43;;;;;;;7.65;2.78;;;7.30;99.90;;;;;;5071722;28;20040;-64
2021/10/16 03:37:09;;;;;;;6.63;2.80;;;7.30;99.90;;;;;;5071523;28;20052;-64
2021/10/16 03:39:34;;;;;;;6.97;2.55;;;7.30;99.90;;;;;;5071168;28;20043;-64
2021/10/16 03:42:00;;;;;;;9.82;3.10;;;7.30;99.90;;;;;;5069412;28;20049;-65
2021/10/16 03:44:25;;;;;;;6.25;2.78;;;7.30;99.90;;;;;;5060236;28;20045;-64
2021/10/16 03:46:51;;;;;;;7.22;2.60;;;7.30;99.90;;;;;;5056041;28;20162;-66
2021/10/16 03:49:16;;;;;;;6.18;2.50;;;7.40;99.90;;;;;;5069131;28;20040;-66
2021/10/16 03:51:42;;;;;;;8.00;3.22;;;7.40;99.90;;;;;;5067965;28;20045;-66
2021/10/16 03:54:07;;;;;;;6.72;2.72;;;7.40;99.90;;;;;;5066708;28;20040;-69
2021/10/16 03:56:33;;;;;;;11.73;3.05;;;7.40;99.90;;;;;;5069755;28;20087;-64
2021/10/16 03:58:58;;;;;;;8.68;3.13;;;7.40;99.90;;;;;;5068029;28;20041;-64
2021/10/16 04:01:24;;;;;;;5.18;2.65;;;7.40;99.90;;;;;;5068333;28;20051;-64
2021/10/16 04:03:49;;;;;;;7.13;2.80;;;7.40;99.90;;;;;;5067317;28;20044;-64
2021/10/16 04:06:15;;;;;;;5.85;2.72;;;7.40;99.90;;;;;;5072836;28;20063;-64
2021/10/16 04:08:41;;;;;;;8.23;3.38;;;7.40;99.90;;;;;;5074792;28;20058;-64
2021/10/16 04:11:06;;;;;;;8.98;3.30;;;7.40;99.90;;;;;;5077294;28;20149;-64
2021/10/16 04:13:32;;;;;;;5.40;2.50;;;7.40;99.90;;;;;;5074991;28;20042;-64
2021/10/16 04:15:57;;;;;;;8.52;3.17;;;7.40;99.90;;;;;;5075874;28;20448;-64
2021/10/16 04:18:23;;;;;;;9.73;3.20;;;7.40;99.90;;;;;;5075979;28;20051;-64
2021/10/16 04:20:48;;;;;;;6.03;3.13;;;7.40;99.90;;;;;;5077902;28;20082;-64
2021/10/16 04:23:14;;;;;;;7.22;2.92;;;7.50;99.90;;;;;;5072593;28;20090;-64
2021/10/16 04:25:39;;;;;;;5.18;2.60;;;7.50;99.90;;;;;;5073968;28;20048;-64
2021/10/16 04:28:05;;;;;;;10.55;3.30;;;7.50;99.90;;;;;;5063134;28;20036;-64
2021/10/16 04:30:30;;;;;;;4.05;2.47;;;7.50;99.90;;;;;;5076168;28;20102;-64
2021/10/16 04:32:58;;;;;;;9.35;3.08;;;7.50;99.90;;;;;;5071543;28;20037;-64
2021/10/16 04:35:24;;;;;;;6.70;2.88;;;7.50;99.90;;;;;;5057553;28;20036;-64
2021/10/16 04:37:50;;;;;;;6.93;2.90;;;7.60;99.90;;;;;;5061368;28;20120;-64
2021/10/16 04:40:20;;;;;;;8.73;3.30;;;7.50;99.90;;;;;;5077407;28;20079;-64
2021/10/16 04:42:49;;;;;;;6.80;2.97;;;7.60;99.90;;;;;;5077413;28;20163;-64
2021/10/16 04:45:15;;;;;;;8.75;3.22;;;7.60;99.90;;;;;;5077627;28;20039;-64
2021/10/16 04:47:41;;;;;;;8.65;3.00;;;7.60;99.90;;;;;;5076146;28;20066;-64
2021/10/16 04:50:08;;;;;;;5.25;3.45;;;7.60;99.90;;;;;;5074492;28;20033;-64
2021/10/16 04:52:33;;;;;;;6.60;2.45;;;7.60;99.90;;;;;;5075994;28;20391;-65
2021/10/16 04:54:59;;;;;;;7.75;3.10;;;7.60;99.90;;;;;;5077016;28;20048;-64
2021/10/16 04:57:25;;;;;;;6.13;3.03;;;7.60;99.90;;;;;;5076048;28;20040;-64
2021/10/16 04:59:50;;;;;;;6.93;2.88;;;7.60;99.90;;;;;;5075624;28;20097;-64
2021/10/16 05:02:16;;;;;;;6.40;3.20;;;7.60;99.90;;;;;;5077196;28;20378;-64
2021/10/16 05:04:42;;;;;;;7.65;3.05;;;7.70;99.90;;;;;;5076048;28;20102;-64
2021/10/16 05:07:08;;;;;;;6.72;2.65;;;7.70;99.90;;;;;;5071213;28;20535;-64
2021/10/16 05:09:33;;;;;;;5.55;2.53;;;7.70;99.90;;;;;;5057457;28;20525;-64
2021/10/16 05:11:59;;;;;;;5.95;2.70;;;7.70;99.90;;;;;;5069176;28;20127;-64
2021/10/16 05:14:25;;;;;;;9.18;2.92;;;7.70;99.90;;;;;;5075747;28;20040;-64
2021/10/16 05:16:50;;;;;;;6.40;2.67;;;7.70;99.90;;;;;;5076911;28;20497;-64
2021/10/16 05:19:16;;;;;;;5.68;2.80;;;7.70;99.90;;;;;;5074247;28;20143;-64
2021/10/16 05:21:42;;;;;;;4.97;2.63;;;7.70;99.90;;;;;;5072915;28;20048;-64
2021/10/16 05:24:07;;;;;;;5.20;2.42;;;7.70;99.90;;;;;;5073152;28;20051;-64
2021/10/16 05:26:33;;;;;;;7.40;2.67;;;7.70;99.90;;;;;;5073635;28;20676;-64
2021/10/16 05:28:59;;;;;;;6.63;2.72;;;7.70;99.90;;;;;;5061229;28;20398;-64
2021/10/16 05:31:24;;;;;;;5.93;2.85;;;7.80;99.90;;;;;;5069331;28;20425;-64
2021/10/16 05:33:51;;;;;;;7.15;2.58;;;7.70;99.90;;;;;;5074154;28;20033;-64
2021/10/16 05:36:16;;;;;;;6.07;2.60;;;7.80;99.90;;;;;;5072607;28;20116;-64
2021/10/16 05:38:42;;;;;;;6.97;3.03;;;7.70;99.90;;;;;;5073596;28;20123;-64
2021/10/16 05:41:08;;;;;;;8.77;3.13;;;7.80;99.90;;;;;;5069677;28;20037;-64
2021/10/16 05:43:33;;;;;;;6.75;2.33;;;7.80;99.90;;;;;;5073804;28;20059;-64
2021/10/16 05:46:01;;;;;;;8.00;2.67;;;7.80;99.90;;;;;;5073187;28;20044;-64
2021/10/16 05:48:29;;;;;;;6.85;2.67;;;7.80;99.90;;;;;;5073688;28;20409;-64
2021/10/16 05:50:54;;;;;;;7.55;3.35;;;7.80;99.90;;;;;;5073368;28;20048;-64
2021/10/16 05:53:20;;;;;;;8.60;2.80;;;7.80;99.90;;;;;;5072255;28;20044;-64
2021/10/16 05:55:46;;;;;;;10.48;3.47;;;7.80;99.90;;;;;;5053571;28;20053;-64
2021/10/16 05:58:11;;;;;;;6.25;3.40;;;7.80;99.90;;;;;;5066173;28;20448;-64
2021/10/16 06:00:37;;;;;;;7.60;3.53;;;7.80;99.90;;;;;;5072324;28;20033;-64
2021/10/16 06:03:02;;;;;;;7.25;3.15;;;7.90;99.90;;;;;;5073229;28;20028;-64
2021/10/16 06:05:28;;;;;;;9.00;3.90;;;7.90;99.90;;;;;;5072226;28;20033;-64
2021/10/16 06:07:53;;;;;;;6.63;2.78;;;7.90;99.90;;;;;;5072497;28;20075;-64
2021/10/16 06:10:19;;;;;;;6.45;3.05;;;7.90;99.90;;;;;;5071961;28;20044;-64
2021/10/16 06:12:44;;;;;;;7.55;3.13;;;7.90;99.90;;;;;;5073303;28;20040;-64
2021/10/16 06:15:10;;;;;;;8.15;3.60;;;7.90;99.90;;;;;;5066675;28;20045;-64
2021/10/16 06:17:35;;;;;;;7.72;2.80;;;7.90;99.90;;;;;;5070685;28;20040;-64
2021/10/16 06:20:01;;;;;;;5.82;2.53;;;7.90;99.90;;;;;;5072288;28;20040;-64
2021/10/16 06:22:27;;;;;;;6.95;3.03;;;7.90;99.90;;;;;;5072351;28;20069;-64
2021/10/16 06:24:52;;;;;;;8.32;2.88;;;7.90;99.90;;;;;;5070940;28;20040;-64
2021/10/16 06:27:18;;;;;;;9.35;2.90;;;7.90;99.90;;;;;;5070644;28;20484;-64
2021/10/16 06:29:44;;;;;;;9.63;3.55;;;7.90;99.90;;;;;;5071316;28;20089;-64
2021/10/16 06:32:09;;;;;;;7.90;3.22;;;7.90;99.90;;;;;;5066488;28;20052;-64
2021/10/16 06:34:37;;;;;;;6.68;3.22;;;8.00;99.90;;;;;;5058800;28;20390;-64
2021/10/16 06:37:02;;;;;;;6.75;3.40;;;8.00;99.90;;;;;;5072349;28;20094;-64
2021/10/16 06:39:28;;;;;;;7.63;2.90;;;8.00;99.90;;;;;;5065099;28;20483;-64
2021/10/16 06:41:54;;;;;;;7.70;3.17;;;8.00;99.90;;;;;;5070477;28;20040;-64
2021/10/16 06:44:19;;;;;;;7.93;3.20;;;8.00;99.90;;;;;;5068649;28;20087;-64
2021/10/16 06:46:45;;;;;;;9.23;3.35;;;8.00;99.90;;;;;;5068810;28;20060;-64
2021/10/16 06:49:10;;;;;;;7.85;2.92;;;8.10;99.90;;;;;;5069375;28;20054;-64
2021/10/16 06:51:36;;;;;;;7.97;3.00;;;8.00;99.90;;;;;;5071107;28;20045;-64
2021/10/16 06:54:02;;;;;;;7.38;3.15;;;8.10;99.90;;;;;;5069374;28;20056;-64
2021/10/16 06:56:28;;;;;;;6.65;2.95;;;8.10;99.90;;;;;;5070908;28;20063;-64
2021/10/16 06:58:54;;;;;;;7.57;2.97;;;8.10;99.90;;;;;;5072008;28;20040;-64
2021/10/16 07:01:19;;;;;;;10.15;3.22;;;8.20;99.90;;;;;;5072117;28;20089;-65
2021/10/16 07:03:45;;;;;;;10.85;3.10;;;8.10;99.90;;;;;;5071013;28;20075;-64
2021/10/16 07:06:11;;;;;;;6.53;2.90;;;8.10;99.90;;;;;;5065340;28;20041;-65
2021/10/16 07:08:36;;;;;;;8.52;3.08;;;8.20;99.90;;;;;;5050982;28;20045;-63
2021/10/16 07:11:03;;;;;;;10.35;3.05;;;8.20;99.90;;;;;;5052066;28;20041;-65
2021/10/16 07:13:28;;;;;;;11.63;3.38;;;8.20;99.90;;;;;;5051880;28;20486;-64
2021/10/16 07:15:54;;;;;;;9.40;3.50;;;8.20;99.90;;;;;;5065563;28;20040;-64
2021/10/16 07:18:20;;;;;;;13.82;3.88;;;8.30;99.90;;;;;;5070269;28;22466;-64
2021/10/16 07:20:45;;;;;;;8.73;3.53;;;8.30;99.90;;;;;;5070896;28;20028;-64
2021/10/16 07:23:15;;;;;;;9.88;2.92;;;8.30;99.90;;;;;;5068310;28;20568;-64
2021/10/16 07:25:42;;;;;;;10.18;3.70;;;8.40;99.90;;;;;;5067947;28;20479;-64
2021/10/16 07:28:08;;;;;;;7.00;3.13;;;8.40;99.90;;;;;;5066245;28;20143;-64
2021/10/16 07:30:33;;;;;;;9.25;3.03;;;8.40;99.90;;;;;;5068221;28;20478;-64
2021/10/16 07:32:59;;;;;;;6.60;2.92;;;8.50;99.90;;;;;;5069213;28;20123;-64
2021/10/16 07:35:24;;;;;;;9.77;3.55;;;8.60;99.90;;;;;;5069161;28;20397;-64
2021/10/16 07:37:50;;;;;;;7.90;2.90;;;8.60;99.90;;;;;;5068757;28;20502;-64
2021/10/16 07:40:15;;;;;;;6.30;2.85;;;8.60;99.90;;;;;;5068337;28;20033;-64
2021/10/16 07:42:41;;;;;;;8.05;3.53;;;8.60;99.90;;;;;;5068887;28;20086;-64
2021/10/16 07:45:07;;;;;;;5.18;2.47;;;8.70;99.90;;;;;;5067519;28;20125;-64
2021/10/16 07:47:32;;;;;;;11.57;3.60;;;8.70;99.90;;;;;;5068514;28;20028;-64
2021/10/16 07:49:58;;;;;;;8.77;2.90;;;8.80;99.90;;;;;;5068428;28;20045;-64
2021/10/16 07:52:24;;;;;;;5.95;2.63;;;8.80;99.90;;;;;;5064509;28;20056;-64
2021/10/16 07:54:50;;;;;;;11.88;3.95;;;8.80;99.90;;;;;;5069898;28;20066;-64
2021/10/16 07:57:15;;;;;;;6.97;2.95;;;8.90;99.90;;;;;;5068565;28;20033;-64
2021/10/16 07:59:41;;;;;;;8.23;3.60;;;8.90;99.90;;;;;;5068727;28;20128;-64
2021/10/16 08:02:07;;;;;;;5.13;2.95;;;8.90;99.90;;;;;;5067310;28;20049;-64
2021/10/16 08:04:32;;;;;;;8.73;3.58;;;9.00;99.90;;;;;;5063571;28;20433;-64
2021/10/16 08:06:58;;;;;;;7.43;3.45;;;9.00;99.90;;;;;;5054246;28;20509;-64
2021/10/16 08:09:23;;;;;;;10.13;3.50;;;9.10;99.90;;;;;;5070942;28;20474;-64
2021/10/16 08:11:49;;;;;;;8.85;3.53;;;9.10;99.90;;;;;;5068788;28;21429;-64
2021/10/16 08:14:14;;;;;;;8.48;2.75;;;9.10;99.90;;;;;;5070973;28;20613;-64
2021/10/16 08:16:40;;;;;;;10.70;4.13;;;9.10;99.90;;;;;;5070578;28;20063;-64
2021/10/16 08:19:06;;;;;;;8.15;3.50;;;9.20;99.90;;;;;;5070907;28;20512;-64
2021/10/16 08:21:31;;;;;;;11.02;3.70;;;9.20;99.90;;;;;;5070870;28;20455;-64
2021/10/16 08:23:57;;;;;;;12.05;3.53;;;9.20;99.90;;;;;;5068947;28;20155;-64
2021/10/16 08:26:22;;;;;;;8.85;2.92;;;9.20;99.90;;;;;;5070890;28;20082;-64
2021/10/16 08:28:48;;;;;;;6.53;3.03;;;9.30;99.90;;;;;;5070297;28;20036;-64
2021/10/16 08:31:14;;;;;;;8.90;3.58;;;9.30;99.90;;;;;;5066329;28;20045;-64
2021/10/16 08:33:40;;;;;;;9.13;3.10;;;9.40;99.90;;;;;;5065024;28;20083;-64
2021/10/16 08:36:06;;;;;;;7.40;3.33;;;9.40;99.90;;;;;;5068805;28;20072;-64
2021/10/16 08:38:32;;;;;;;8.70;3.88;;;9.50;99.90;;;;;;5062027;28;20044;-64
2021/10/16 08:40:58;;;;;;;10.27;3.80;;;9.50;99.90;;;;;;5068965;28;20041;-64
2021/10/16 08:43:23;;;;;;;7.70;3.00;;;9.60;99.90;;;;;;5067177;28;20093;-64
2021/10/16 08:45:49;;;;;;;7.43;3.40;;;9.60;99.90;;;;;;5062590;28;20098;-64
2021/10/16 08:48:15;;;;;;;10.27;3.70;;;9.70;99.90;;;;;;5068231;28;20076;-64
2021/10/16 08:50:45;;;;;;;8.15;3.15;;;9.70;99.90;;;;;;5068343;28;20036;-64
2021/10/16 08:53:10;;;;;;;9.02;3.25;;;9.80;99.90;;;;;;5070528;28;20048;-64
2021/10/16 08:55:36;;;;;;;8.65;3.28;;;9.80;99.90;;;;;;5072519;28;20429;-64
2021/10/16 08:58:02;;;;;;;7.97;2.70;;;9.90;99.90;;;;;;5071806;28;20040;-65
2021/10/16 09:00:51;;;;;;;10.57;4.03;;;10.00;99.90;;;;;;5072966;28;20545;-64
2021/10/16 09:03:18;;;;;;;8.45;3.40;;;10.10;99.90;;;;;;5072550;28;21565;-64
2021/10/16 09:06:02;;;;;;;8.65;3.25;;;10.10;99.90;;;;;;5063614;28;20041;-65
2021/10/16 09:08:35;;;;;;;7.57;2.90;;;10.20;99.90;;;;;;5054290;28;20041;-64
2021/10/16 09:11:33;;;;;;;7.38;3.15;;;10.30;99.90;;;;;;5058122;28;20052;-64
2021/10/16 09:14:06;;;;;;;7.18;2.92;;;10.40;99.90;;;;;;5058666;28;20036;-64
2021/10/16 09:16:40;;;;;;;9.15;2.80;;;10.50;99.90;;;;;;5069920;28;20871;-64
2021/10/16 09:19:10;;;;;;;8.48;3.10;;;10.50;99.90;;;;;;5059544;28;20167;-65
2021/10/16 09:21:41;;;;;;;10.07;4.40;;;10.60;99.90;;;;;;5064127;28;20036;-64
2021/10/16 09:24:17;;;;;;;6.07;2.80;;;10.70;99.90;;;;;;5071503;28;20036;-64
2021/10/16 09:26:55;;;;;;;8.60;2.60;;;10.80;99.90;;;;;;5065135;28;20509;-64
2021/10/16 09:29:22;;;;;;;8.52;2.40;;;10.90;99.90;;;;;;5058134;28;20029;-64
2021/10/16 09:31:53;;;;;;;8.68;2.40;;;11.00;99.90;;;;;;5069138;28;20098;-65
2021/10/16 09:34:28;;;;;;;8.05;2.75;;;11.10;99.90;;;;;;5066526;28;20079;-64
2021/10/16 09:37:20;;;;;;;9.35;2.80;;;11.10;99.90;;;;;;5071540;28;20048;-64
2021/10/16 09:39:49;;;;;;;;;;;11.20;99.90;;;;;;5071521;28;20028;-65
2021/10/16 09:42:30;;;;;;;8.80;2.78;;;11.30;99.90;;;;;;5073148;28;19916;-65
2021/10/16 09:44:57;;;;;;;7.82;3.10;;;11.30;99.90;;;;;;5070861;28;20048;-64
2021/10/16 09:47:23;;;;;;;10.07;3.00;;;11.40;99.90;;;;;;5061337;28;20067;-64
2021/10/16 09:50:06;;;;;;;7.70;2.60;;;11.40;99.90;;;;;;5072974;28;20382;-64
2021/10/16 09:52:37;;;;;;;5.60;2.30;;;11.50;99.90;;;;;;5067628;28;20143;-64
2021/10/16 09:55:05;;;;;;;9.17;2.53;;;11.50;99.90;;;;;;5063713;28;20037;-64
2021/10/16 09:57:32;;;;;;;5.72;2.17;;;11.60;99.90;;;;;;5065117;28;20054;-64
2021/10/16 10:00:00;;;;;;;8.77;2.72;;;11.60;99.90;;;;;;5066295;28;20037;-64
2021/10/16 10:02:29;;;;;;;7.63;2.90;;;11.70;99.90;;;;;;5063877;28;20119;-64
2021/10/16 10:04:56;;;;;;;12.20;3.10;;;11.70;99.90;;;;;;5077551;28;20047;-64
2021/10/16 10:07:23;;;;;;;5.15;2.67;;;11.70;99.90;;;;;;5067228;22;20053;-64
2021/10/16 10:09:49;;;;;;;8.10;3.10;;;11.70;99.90;;;;;;5051063;28;20106;-64
2021/10/16 10:12:16;;;;;;;8.35;3.20;;;11.80;99.90;;;;;;5053240;28;20041;-64
2021/10/16 10:14:46;;;;;;;6.35;3.05;;;11.80;99.90;;;;;;5050119;28;20077;-64
2021/10/16 10:17:16;;;;;;;7.40;2.63;;;11.80;99.90;;;;;;5052052;28;20045;-64
2021/10/16 10:19:49;;;;;;;9.70;2.95;;;11.80;99.90;;;;;;5051308;28;20386;-64
2021/10/16 10:22:17;;;;;;;9.93;3.40;;;11.80;99.90;;;;;;5033962;28;20463;-64
2021/10/16 10:24:45;;;;;;;9.40;2.97;;;11.80;99.90;;;;;;5051059;28;20037;-64
2021/10/16 10:27:13;;;;;;;6.55;2.67;;;11.90;99.90;;;;;;5015691;28;20067;-64
2021/10/16 10:29:42;;;;;;;8.52;2.60;;;11.80;99.90;;;;;;5051331;28;20087;-64
2021/10/16 10:32:24;;;;;;;7.53;2.50;;;11.90;99.90;;;;;;5046643;28;20042;-64
2021/10/16 10:35:00;;;;;;;7.88;3.13;;;11.90;99.90;;;;;;5047061;28;20032;-64
2021/10/16 10:37:54;;;;;;;10.20;3.58;;;11.90;99.90;;;;;;5050818;28;20059;-64
2021/10/16 10:40:22;;;;;;;6.28;3.05;;;11.90;99.90;;;;;;5048465;28;20053;-64
2021/10/16 10:42:50;;;;;;;7.30;3.47;;;11.90;99.90;;;;;;5049800;28;20127;-64
2021/10/16 10:45:23;;;;;;;11.10;3.30;;;11.90;99.90;;;;;;5039047;28;20052;-64
2021/10/16 10:48:06;;;;;;;10.68;3.17;;;11.90;99.90;;;;;;5029230;28;20052;-64
2021/10/16 10:50:39;;;;;;;;;;;12.00;99.90;;;;;;5026306;28;20139;-64
2021/10/16 10:53:10;;;;;;;9.55;2.92;;;12.00;99.90;;;;;;5048970;28;19920;-65
2021/10/16 10:55:56;;;;;;;6.35;2.85;;;12.00;99.90;;;;;;5049393;28;20040;-64
2021/10/16 10:58:23;;;;;;;9.70;2.85;;;12.10;99.90;;;;;;5046820;28;20385;-65
2021/10/16 11:00:51;;;;;;;8.00;2.88;;;12.10;99.90;;;;;;5044533;28;20029;-64
2021/10/16 11:03:29;;;;;;;8.02;2.50;;;12.20;99.90;;;;;;5048951;28;20482;-64
2021/10/16 11:05:56;;;;;;;6.25;2.42;;;12.20;99.90;;;;;;5035765;28;20069;-64
2021/10/16 11:08:23;;;;;;;8.38;2.70;;;12.20;99.90;;;;;;5039881;28;20433;-65
2021/10/16 11:10:56;;;;;;;7.28;2.75;;;12.20;99.90;;;;;;5039271;28;20041;-65
2021/10/16 11:13:22;;;;;;;14.90;3.75;;;12.30;99.90;;;;;;5026047;28;20486;-65
2021/10/16 11:15:59;;;;;;;9.15;3.30;;;12.40;99.90;;;;;;5049341;28;20045;-65
2021/10/16 11:18:25;;;;;;;7.07;2.55;;;12.50;99.90;;;;;;5046315;28;20521;-65
2021/10/16 11:20:51;;;;;;;6.60;2.92;;;12.50;99.90;;;;;;5039116;28;20051;-65
2021/10/16 11:23:22;;;;;;;6.18;2.83;;;12.60;99.90;;;;;;5049686;28;20025;-65
2021/10/16 11:26:15;;;;;;;8.57;3.00;;;12.60;99.90;;;;;;5050595;28;20717;-65
2021/10/16 11:28:44;;;;;;;7.90;2.65;;;12.70;99.90;;;;;;5027340;28;20559;-64
2021/10/16 11:31:10;;;;;;;12.90;3.60;;;12.80;99.90;;;;;;5047363;28;20135;-66
2021/10/16 11:33:39;;;;;;;12.30;3.13;;;12.80;99.90;;;;;;5050564;28;20033;-65
2021/10/16 11:36:07;;;;;;;7.68;2.90;;;12.90;99.90;;;;;;5048678;28;20507;-65
2021/10/16 11:38:35;;;;;;;5.47;2.50;;;12.90;99.90;;;;;;5048066;28;20490;-65
2021/10/16 11:41:03;;;;;;;8.65;2.40;;;12.90;99.90;;;;;;5026272;28;20041;-65
2021/10/16 11:43:38;;;;;;;11.82;2.80;;;12.90;99.90;;;;;;5027175;28;20033;-65
2021/10/16 11:46:06;;;;;;;8.20;2.40;;;13.00;99.90;;;;;;5043940;28;20166;-65
2021/10/16 11:48:32;;;;;;;6.82;2.30;;;13.10;99.90;;;;;;5046759;28;20052;-65
2021/10/16 11:51:01;;;;;;;6.65;2.05;;;13.10;99.90;;;;;;5044056;28;20510;-65
2021/10/16 11:53:28;;;;;;;9.57;2.15;;;13.10;99.90;;;;;;5039320;28;20040;-65
2021/10/16 11:55:59;;;;;;;6.90;2.30;;;13.10;99.90;;;;;;5047371;28;20048;-65
2021/10/16 11:58:29;;;;;;;9.05;2.55;;;13.20;99.90;;;;;;5049186;28;20059;-65
2021/10/16 12:01:03;;;;;;;7.13;2.45;;;13.30;99.90;;;;;;5048136;28;20082;-65
2021/10/16 12:03:40;;;;;;;8.27;2.28;;;13.30;99.90;;;;;;5048155;28;20120;-65
2021/10/16 12:06:08;;;;;;;7.63;2.45;;;13.40;99.90;;;;;;5035790;28;20029;-65
2021/10/16 12:08:46;;;;;;;9.85;2.28;;;13.40;99.90;;;;;;5040902;28;20048;-65
2021/10/16 12:11:19;;;;;;;5.20;1.92;;;13.50;99.90;;;;;;5053234;28;20045;-65
2021/10/16 12:14:06;;;;;;;6.63;2.03;;;13.50;99.90;;;;;;5049093;28;20120;-65
2021/10/16 12:16:43;;;;;;;5.38;1.90;;;13.60;99.90;;;;;;5030987;28;20045;-65
2021/10/16 12:19:19;;;;;;;7.57;2.17;;;13.60;99.90;;;;;;5042623;28;20048;-65
2021/10/16 12:21:47;;;;;;;5.93;1.67;;;13.50;99.90;;;;;;5048739;28;20048;-65
2021/10/16 12:24:24;;;;;;;7.00;1.90;;;13.50;99.90;;;;;;5051030;28;20389;-65
2021/10/16 12:27:10;;;;;;;8.85;2.03;;;13.50;99.90;;;;;;5044644;28;20055;-65
2021/10/16 12:29:38;;;;;;;7.75;2.00;;;13.50;99.90;;;;;;5046495;28;20731;-65
2021/10/16 12:32:08;;;;;;;6.13;2.08;;;13.50;99.90;;;;;;5039270;28;20052;-65
2021/10/16 12:34:37;;;;;;;6.72;2.03;;;13.50;99.90;;;;;;5047168;28;20412;-65
2021/10/16 12:37:13;;;;;;;5.10;2.28;;;13.50;99.90;;;;;;5050700;28;20076;-65
2021/10/16 12:39:47;;;;;;;7.32;2.20;;;13.50;99.90;;;;;;5056861;28;20120;-65
2021/10/16 12:42:14;;;;;;;5.55;2.20;;;13.60;99.90;;;;;;5031154;28;20045;-65
2021/10/16 12:44:44;;;;;;;7.53;2.30;;;13.50;99.90;;;;;;5053434;28;20037;-65
2021/10/16 12:47:13;;;;;;;6.03;2.15;;;13.50;99.90;;;;;;5052672;28;20037;-65
2021/10/16 12:50:00;;;;;;;8.57;2.22;;;13.60;99.90;;;;;;5043046;28;20497;-65
2021/10/16 12:52:26;;;;;;;6.35;2.17;;;13.50;99.90;;;;;;5048953;28;20545;-65
2021/10/16 12:54:54;;;;;;;7.72;2.08;;;13.50;99.90;;;;;;5032909;28;20057;-65